Airfield :
LOGIN :

Register | Disclaimer

   EN    FR    IT 

 










Legend :    VFR   Marginal VFR   IFR   Intensive IFR   Very Intensive IFR
Visi :
Ceiling :
>= 8 km
>= 3000ft
5 to 8 km
1000 to 3000 ft
1500m to 5 km
500 to 1000 ft
800 to 1500m
200 to 500 ft
< 800m
< 200 ft
Symbols :   Thunderstorms  Fog  Heavy snow  Heavy precipitations  Wind > 20 kt
SIGMETs :     Misc.  Thunderstorms  Icing  Turbulence  Mountain Waves  Volcanic Ashes







- Airport Elevation : 650 ft
- IATA code : ZJI


LSZL - Locarno

CURRENT METAR :
  • 250720Z 08004KT 050V110 CAVOK 15/01 Q1014 RMK BLU

EXPIRED METARs :
  • 250650Z 06005KT 030V090 CAVOK 12/01 Q1014 RMK BLU
  • 250620Z 07004KT 040V110 CAVOK 12/M00 Q1014 RMK BLU
  • 250550Z AUTO 05004KT 020V100 9999NDV NCD 11/M00 Q1014 RMK
  • 250520Z AUTO 08007KT 9999NDV NCD 08/00 Q1015 RMK
  • 250420Z AUTO 07006KT 040V120 9999NDV NCD 10/01 Q1015 RMK

TAF TAF LSZL
Valid from the 25 at 06:00 until the 25 at 15:00 UTC


250525Z 2506/2515 06005KT CAVOK
BECMG 2509/2513 08015G25KT
No reported NOTAMs for that airfield.



MET'MAP, your aeronautical weather chart ! - Copyright ORBIFLY December 2007 - Disclaimer

ORBIFLY MET'MAP TEAM :

Programming & Development : Alexandra Zaïnal
Concept & Development : Baudouin d'Aumeries
Co-Development & Prog : Marc-Olivier Méhu
Technical & hardware support : Manuel Goepfert

Contact : metmap@orbifly.com




SOURCES & CREDITS :

   NOAA